sensor_id;sensor_type;location;lat;lon;timestamp;P1;durP1;ratioP1;P2;durP2;ratioP2
40717;SDS011;26405;51.850;-2.246;2023-10-31T00:00:03;8.80;;;2.67;;
40717;SDS011;26405;51.850;-2.246;2023-10-31T00:02:31;12.25;;;3.03;;
40717;SDS011;26405;51.850;-2.246;2023-10-31T00:04:57;8.20;;;2.60;;
40717;SDS011;26405;51.850;-2.246;2023-10-31T00:07:22;11.98;;;2.83;;
40717;SDS011;26405;51.850;-2.246;2023-10-31T00:09:48;11.13;;;2.72;;
40717;SDS011;26405;51.850;-2.246;2023-10-31T00:12:13;12.85;;;2.92;;
40717;SDS011;26405;51.850;-2.246;2023-10-31T00:14:39;11.77;;;2.92;;
40717;SDS011;26405;51.850;-2.246;2023-10-31T00:17:04;14.90;;;3.25;;
40717;SDS011;26405;51.850;-2.246;2023-10-31T00:19:29;14.05;;;3.08;;
40717;SDS011;26405;51.850;-2.246;2023-10-31T00:21:54;9.82;;;3.10;;
40717;SDS011;26405;51.850;-2.246;2023-10-31T00:24:20;10.95;;;3.20;;
40717;SDS011;26405;51.850;-2.246;2023-10-31T00:26:45;12.80;;;3.30;;
40717;SDS011;26405;51.850;-2.246;2023-10-31T00:29:10;11.30;;;2.70;;
40717;SDS011;26405;51.850;-2.246;2023-10-31T00:31:35;11.20;;;2.80;;
40717;SDS011;26405;51.850;-2.246;2023-10-31T00:34:01;9.80;;;2.60;;
40717;SDS011;26405;51.850;-2.246;2023-10-31T00:36:27;10.02;;;2.80;;
40717;SDS011;26405;51.850;-2.246;2023-10-31T00:38:52;13.68;;;2.78;;
40717;SDS011;26405;51.850;-2.246;2023-10-31T00:41:17;11.63;;;3.13;;
40717;SDS011;26405;51.850;-2.246;2023-10-31T00:43:43;13.27;;;3.83;;
40717;SDS011;26405;51.850;-2.246;2023-10-31T00:46:08;13.88;;;3.85;;
40717;SDS011;26405;51.850;-2.246;2023-10-31T00:48:33;13.73;;;3.67;;
40717;SDS011;26405;51.850;-2.246;2023-10-31T00:51:05;14.05;;;3.60;;
40717;SDS011;26405;51.850;-2.246;2023-10-31T00:53:30;14.23;;;4.28;;
40717;SDS011;26405;51.850;-2.246;2023-10-31T00:55:56;25.65;;;8.35;;
40717;SDS011;26405;51.850;-2.246;2023-10-31T00:58:21;21.73;;;7.83;;
40717;SDS011;26405;51.850;-2.246;2023-10-31T01:00:46;20.35;;;5.75;;
40717;SDS011;26405;51.850;-2.246;2023-10-31T01:03:11;17.30;;;5.50;;
40717;SDS011;26405;51.850;-2.246;2023-10-31T01:05:37;14.20;;;3.33;;
40717;SDS011;26405;51.850;-2.246;2023-10-31T01:08:02;11.23;;;3.10;;
40717;SDS011;26405;51.850;-2.246;2023-10-31T01:10:27;11.85;;;3.10;;
40717;SDS011;26405;51.850;-2.246;2023-10-31T01:12:53;10.98;;;3.08;;
40717;SDS011;26405;51.850;-2.246;2023-10-31T01:15:18;11.70;;;2.97;;
40717;SDS011;26405;51.850;-2.246;2023-10-31T01:17:43;14.25;;;3.30;;
40717;SDS011;26405;51.850;-2.246;2023-10-31T01:20:08;11.75;;;3.45;;
40717;SDS011;26405;51.850;-2.246;2023-10-31T01:22:35;11.52;;;3.00;;
40717;SDS011;26405;51.850;-2.246;2023-10-31T01:25:00;9.55;;;2.70;;
40717;SDS011;26405;51.850;-2.246;2023-10-31T01:27:25;11.43;;;2.60;;
40717;SDS011;26405;51.850;-2.246;2023-10-31T01:29:51;11.73;;;2.75;;
40717;SDS011;26405;51.850;-2.246;2023-10-31T01:32:16;8.77;;;2.47;;
40717;SDS011;26405;51.850;-2.246;2023-10-31T01:34:41;12.10;;;2.80;;
40717;SDS011;26405;51.850;-2.246;2023-10-31T01:37:06;9.32;;;2.25;;
40717;SDS011;26405;51.850;-2.246;2023-10-31T01:39:32;10.88;;;2.83;;
40717;SDS011;26405;51.850;-2.246;2023-10-31T01:41:57;9.45;;;2.45;;
40717;SDS011;26405;51.850;-2.246;2023-10-31T01:44:22;10.38;;;2.30;;
40717;SDS011;26405;51.850;-2.246;2023-10-31T01:46:48;9.38;;;3.03;;
40717;SDS011;26405;51.850;-2.246;2023-10-31T01:49:13;10.80;;;3.30;;
40717;SDS011;26405;51.850;-2.246;2023-10-31T01:51:40;12.52;;;3.08;;
40717;SDS011;26405;51.850;-2.246;2023-10-31T01:54:05;10.55;;;3.13;;
40717;SDS011;26405;51.850;-2.246;2023-10-31T01:56:31;17.48;;;6.60;;
40717;SDS011;26405;51.850;-2.246;2023-10-31T01:58:56;20.02;;;7.03;;
40717;SDS011;26405;51.850;-2.246;2023-10-31T02:01:22;16.55;;;4.82;;
40717;SDS011;26405;51.850;-2.246;2023-10-31T02:03:47;11.98;;;4.55;;
40717;SDS011;26405;51.850;-2.246;2023-10-31T02:06:13;12.30;;;4.32;;
40717;SDS011;26405;51.850;-2.246;2023-10-31T02:08:38;15.10;;;3.47;;
40717;SDS011;26405;51.850;-2.246;2023-10-31T02:11:03;9.80;;;3.00;;
40717;SDS011;26405;51.850;-2.246;2023-10-31T02:13:30;10.48;;;2.65;;
40717;SDS011;26405;51.850;-2.246;2023-10-31T02:15:56;8.13;;;2.47;;
40717;SDS011;26405;51.850;-2.246;2023-10-31T02:18:21;10.68;;;2.80;;
40717;SDS011;26405;51.850;-2.246;2023-10-31T02:20:47;7.65;;;2.30;;
40717;SDS011;26405;51.850;-2.246;2023-10-31T02:23:15;11.65;;;2.70;;
40717;SDS011;26405;51.850;-2.246;2023-10-31T02:28:05;8.98;;;2.70;;
40717;SDS011;26405;51.850;-2.246;2023-10-31T02:30:30;13.75;;;3.35;;
40717;SDS011;26405;51.850;-2.246;2023-10-31T02:32:56;8.63;;;2.90;;
40717;SDS011;26405;51.850;-2.246;2023-10-31T02:35:21;12.73;;;4.03;;
40717;SDS011;26405;51.850;-2.246;2023-10-31T02:37:46;11.18;;;2.88;;
40717;SDS011;26405;51.850;-2.246;2023-10-31T02:40:12;10.13;;;2.85;;
40717;SDS011;26405;51.850;-2.246;2023-10-31T02:42:37;10.52;;;2.60;;
40717;SDS011;26405;51.850;-2.246;2023-10-31T02:45:03;8.88;;;2.72;;
40717;SDS011;26405;51.850;-2.246;2023-10-31T02:47:28;8.63;;;2.80;;
40717;SDS011;26405;51.850;-2.246;2023-10-31T02:49:53;11.20;;;2.72;;
40717;SDS011;26405;51.850;-2.246;2023-10-31T02:52:19;8.60;;;2.50;;
40717;SDS011;26405;51.850;-2.246;2023-10-31T02:54:44;7.65;;;2.47;;
40717;SDS011;26405;51.850;-2.246;2023-10-31T02:57:10;7.30;;;2.40;;
40717;SDS011;26405;51.850;-2.246;2023-10-31T02:59:35;7.53;;;2.22;;
40717;SDS011;26405;51.850;-2.246;2023-10-31T03:02:00;12.02;;;2.83;;
40717;SDS011;26405;51.850;-2.246;2023-10-31T03:04:25;5.95;;;2.40;;
40717;SDS011;26405;51.850;-2.246;2023-10-31T03:06:51;7.25;;;2.40;;
40717;SDS011;26405;51.850;-2.246;2023-10-31T03:09:16;10.15;;;2.55;;
40717;SDS011;26405;51.850;-2.246;2023-10-31T03:11:42;9.57;;;2.60;;
40717;SDS011;26405;51.850;-2.246;2023-10-31T03:14:07;6.70;;;2.17;;
40717;SDS011;26405;51.850;-2.246;2023-10-31T03:16:32;8.13;;;2.58;;
40717;SDS011;26405;51.850;-2.246;2023-10-31T03:19:16;7.75;;;2.40;;
40717;SDS011;26405;51.850;-2.246;2023-10-31T03:21:41;9.02;;;2.63;;
40717;SDS011;26405;51.850;-2.246;2023-10-31T03:24:07;10.57;;;2.63;;
40717;SDS011;26405;51.850;-2.246;2023-10-31T03:26:32;11.77;;;2.50;;
40717;SDS011;26405;51.850;-2.246;2023-10-31T03:28:57;8.45;;;2.28;;
40717;SDS011;26405;51.850;-2.246;2023-10-31T03:31:23;7.85;;;2.55;;
40717;SDS011;26405;51.850;-2.246;2023-10-31T03:33:49;9.45;;;2.35;;
40717;SDS011;26405;51.850;-2.246;2023-10-31T03:36:14;7.78;;;2.63;;
40717;SDS011;26405;51.850;-2.246;2023-10-31T03:38:39;9.23;;;2.42;;
40717;SDS011;26405;51.850;-2.246;2023-10-31T03:41:05;12.02;;;2.97;;
40717;SDS011;26405;51.850;-2.246;2023-10-31T03:43:30;8.47;;;2.63;;
40717;SDS011;26405;51.850;-2.246;2023-10-31T03:45:55;9.27;;;2.45;;
40717;SDS011;26405;51.850;-2.246;2023-10-31T03:48:39;10.80;;;2.70;;
40717;SDS011;26405;51.850;-2.246;2023-10-31T03:51:05;11.52;;;2.80;;
40717;SDS011;26405;51.850;-2.246;2023-10-31T03:53:30;10.38;;;2.78;;
40717;SDS011;26405;51.850;-2.246;2023-10-31T03:55:55;9.30;;;2.70;;
40717;SDS011;26405;51.850;-2.246;2023-10-31T03:58:20;7.47;;;2.58;;
40717;SDS011;26405;51.850;-2.246;2023-10-31T04:00:47;7.85;;;2.13;;
40717;SDS011;26405;51.850;-2.246;2023-10-31T04:03:12;6.88;;;2.40;;
40717;SDS011;26405;51.850;-2.246;2023-10-31T04:05:37;11.50;;;2.80;;
40717;SDS011;26405;51.850;-2.246;2023-10-31T04:08:02;12.38;;;2.67;;
40717;SDS011;26405;51.850;-2.246;2023-10-31T04:10:28;8.57;;;2.60;;
40717;SDS011;26405;51.850;-2.246;2023-10-31T04:12:53;10.02;;;2.60;;
40717;SDS011;26405;51.850;-2.246;2023-10-31T04:15:19;9.88;;;2.55;;
40717;SDS011;26405;51.850;-2.246;2023-10-31T04:17:44;12.38;;;2.85;;
40717;SDS011;26405;51.850;-2.246;2023-10-31T04:20:09;8.05;;;2.55;;
40717;SDS011;26405;51.850;-2.246;2023-10-31T04:22:35;8.35;;;2.60;;
40717;SDS011;26405;51.850;-2.246;2023-10-31T04:25:00;8.40;;;2.55;;
40717;SDS011;26405;51.850;-2.246;2023-10-31T04:27:25;10.27;;;2.45;;
40717;SDS011;26405;51.850;-2.246;2023-10-31T04:29:50;10.38;;;2.65;;
40717;SDS011;26405;51.850;-2.246;2023-10-31T04:32:16;9.50;;;2.58;;
40717;SDS011;26405;51.850;-2.246;2023-10-31T04:34:41;9.15;;;2.80;;
40717;SDS011;26405;51.850;-2.246;2023-10-31T04:37:06;11.10;;;2.70;;
40717;SDS011;26405;51.850;-2.246;2023-10-31T04:39:32;10.85;;;2.70;;
40717;SDS011;26405;51.850;-2.246;2023-10-31T04:41:57;9.13;;;2.55;;
40717;SDS011;26405;51.850;-2.246;2023-10-31T04:44:22;6.40;;;2.25;;
40717;SDS011;26405;51.850;-2.246;2023-10-31T04:46:48;8.40;;;2.70;;
40717;SDS011;26405;51.850;-2.246;2023-10-31T04:49:13;10.50;;;2.50;;
40717;SDS011;26405;51.850;-2.246;2023-10-31T04:51:38;6.82;;;2.67;;
40717;SDS011;26405;51.850;-2.246;2023-10-31T04:54:04;8.90;;;2.63;;
40717;SDS011;26405;51.850;-2.246;2023-10-31T04:56:29;9.60;;;2.70;;
40717;SDS011;26405;51.850;-2.246;2023-10-31T04:58:55;10.32;;;2.55;;
40717;SDS011;26405;51.850;-2.246;2023-10-31T05:01:20;11.52;;;3.05;;
40717;SDS011;26405;51.850;-2.246;2023-10-31T05:03:45;10.32;;;2.58;;
40717;SDS011;26405;51.850;-2.246;2023-10-31T05:06:11;8.32;;;2.58;;
40717;SDS011;26405;51.850;-2.246;2023-10-31T05:08:36;9.85;;;2.65;;
40717;SDS011;26405;51.850;-2.246;2023-10-31T05:11:01;9.27;;;2.90;;
40717;SDS011;26405;51.850;-2.246;2023-10-31T05:13:27;12.52;;;3.17;;
40717;SDS011;26405;51.850;-2.246;2023-10-31T05:15:52;8.27;;;2.40;;
40717;SDS011;26405;51.850;-2.246;2023-10-31T05:18:17;9.02;;;2.53;;
40717;SDS011;26405;51.850;-2.246;2023-10-31T05:20:43;9.70;;;2.75;;
40717;SDS011;26405;51.850;-2.246;2023-10-31T05:23:08;9.43;;;2.50;;
40717;SDS011;26405;51.850;-2.246;2023-10-31T05:25:34;7.90;;;2.45;;
40717;SDS011;26405;51.850;-2.246;2023-10-31T05:27:59;11.05;;;2.90;;
40717;SDS011;26405;51.850;-2.246;2023-10-31T05:30:24;8.95;;;2.60;;
40717;SDS011;26405;51.850;-2.246;2023-10-31T05:32:50;9.02;;;2.58;;
40717;SDS011;26405;51.850;-2.246;2023-10-31T05:35:15;8.60;;;2.90;;
40717;SDS011;26405;51.850;-2.246;2023-10-31T05:37:41;11.35;;;2.92;;
40717;SDS011;26405;51.850;-2.246;2023-10-31T05:40:06;10.07;;;2.80;;
40717;SDS011;26405;51.850;-2.246;2023-10-31T05:42:31;12.85;;;3.10;;
40717;SDS011;26405;51.850;-2.246;2023-10-31T05:44:57;9.65;;;2.83;;
40717;SDS011;26405;51.850;-2.246;2023-10-31T05:47:22;12.93;;;3.22;;
40717;SDS011;26405;51.850;-2.246;2023-10-31T05:49:48;12.32;;;3.22;;
40717;SDS011;26405;51.850;-2.246;2023-10-31T05:52:13;8.15;;;2.95;;
40717;SDS011;26405;51.850;-2.246;2023-10-31T05:54:38;14.50;;;3.15;;
40717;SDS011;26405;51.850;-2.246;2023-10-31T05:57:04;8.90;;;2.80;;
40717;SDS011;26405;51.850;-2.246;2023-10-31T05:59:29;9.32;;;3.10;;
40717;SDS011;26405;51.850;-2.246;2023-10-31T06:01:54;10.63;;;3.10;;
40717;SDS011;26405;51.850;-2.246;2023-10-31T06:04:20;10.60;;;3.08;;
40717;SDS011;26405;51.850;-2.246;2023-10-31T06:06:45;10.43;;;2.78;;
40717;SDS011;26405;51.850;-2.246;2023-10-31T06:09:10;13.90;;;3.30;;
40717;SDS011;26405;51.850;-2.246;2023-10-31T06:11:36;7.95;;;2.78;;
40717;SDS011;26405;51.850;-2.246;2023-10-31T06:14:01;11.13;;;3.17;;
40717;SDS011;26405;51.850;-2.246;2023-10-31T06:16:27;8.93;;;3.03;;
40717;SDS011;26405;51.850;-2.246;2023-10-31T06:18:52;9.90;;;3.10;;
40717;SDS011;26405;51.850;-2.246;2023-10-31T06:21:18;11.18;;;3.10;;
40717;SDS011;26405;51.850;-2.246;2023-10-31T06:23:43;7.80;;;2.90;;
40717;SDS011;26405;51.850;-2.246;2023-10-31T06:26:11;12.02;;;2.90;;
40717;SDS011;26405;51.850;-2.246;2023-10-31T06:28:36;9.38;;;3.20;;
40717;SDS011;26405;51.850;-2.246;2023-10-31T06:31:02;6.22;;;2.78;;
40717;SDS011;26405;51.850;-2.246;2023-10-31T06:33:27;10.30;;;2.80;;
40717;SDS011;26405;51.850;-2.246;2023-10-31T06:35:53;11.88;;;2.97;;
40717;SDS011;26405;51.850;-2.246;2023-10-31T06:38:18;8.98;;;2.78;;
40717;SDS011;26405;51.850;-2.246;2023-10-31T06:40:44;9.90;;;2.90;;
40717;SDS011;26405;51.850;-2.246;2023-10-31T06:43:10;6.63;;;2.38;;
40717;SDS011;26405;51.850;-2.246;2023-10-31T06:45:35;9.63;;;2.50;;
40717;SDS011;26405;51.850;-2.246;2023-10-31T06:48:01;10.48;;;2.55;;
40717;SDS011;26405;51.850;-2.246;2023-10-31T06:50:26;6.00;;;2.20;;
40717;SDS011;26405;51.850;-2.246;2023-10-31T06:52:51;8.05;;;2.22;;
40717;SDS011;26405;51.850;-2.246;2023-10-31T06:55:17;7.50;;;2.30;;
40717;SDS011;26405;51.850;-2.246;2023-10-31T06:57:42;6.90;;;2.10;;
40717;SDS011;26405;51.850;-2.246;2023-10-31T07:00:08;7.78;;;2.13;;
40717;SDS011;26405;51.850;-2.246;2023-10-31T07:02:34;10.13;;;2.35;;
40717;SDS011;26405;51.850;-2.246;2023-10-31T07:05:00;6.20;;;2.38;;
40717;SDS011;26405;51.850;-2.246;2023-10-31T07:07:25;7.07;;;2.45;;
40717;SDS011;26405;51.850;-2.246;2023-10-31T07:09:50;7.03;;;2.40;;
40717;SDS011;26405;51.850;-2.246;2023-10-31T07:12:16;8.98;;;2.28;;
40717;SDS011;26405;51.850;-2.246;2023-10-31T07:14:41;10.15;;;2.45;;
40717;SDS011;26405;51.850;-2.246;2023-10-31T07:17:06;8.00;;;2.50;;
40717;SDS011;26405;51.850;-2.246;2023-10-31T07:19:31;6.63;;;2.38;;
40717;SDS011;26405;51.850;-2.246;2023-10-31T07:21:57;10.00;;;2.83;;
40717;SDS011;26405;51.850;-2.246;2023-10-31T07:24:22;7.50;;;2.50;;
40717;SDS011;26405;51.850;-2.246;2023-10-31T07:26:47;9.43;;;2.83;;
40717;SDS011;26405;51.850;-2.246;2023-10-31T07:29:12;14.13;;;2.95;;
40717;SDS011;26405;51.850;-2.246;2023-10-31T07:31:38;9.98;;;2.67;;
40717;SDS011;26405;51.850;-2.246;2023-10-31T07:34:04;8.82;;;3.13;;
40717;SDS011;26405;51.850;-2.246;2023-10-31T07:36:30;9.90;;;2.83;;
40717;SDS011;26405;51.850;-2.246;2023-10-31T07:38:57;9.25;;;2.70;;
40717;SDS011;26405;51.850;-2.246;2023-10-31T07:41:22;9.20;;;2.97;;
40717;SDS011;26405;51.850;-2.246;2023-10-31T07:43:47;16.05;;;3.20;;
40717;SDS011;26405;51.850;-2.246;2023-10-31T07:46:13;11.38;;;3.47;;
40717;SDS011;26405;51.850;-2.246;2023-10-31T07:48:38;11.75;;;3.33;;
40717;SDS011;26405;51.850;-2.246;2023-10-31T07:51:03;10.50;;;3.28;;
40717;SDS011;26405;51.850;-2.246;2023-10-31T07:53:29;9.68;;;3.50;;
40717;SDS011;26405;51.850;-2.246;2023-10-31T07:55:54;11.25;;;3.30;;
40717;SDS011;26405;51.850;-2.246;2023-10-31T07:58:19;10.13;;;3.22;;
40717;SDS011;26405;51.850;-2.246;2023-10-31T08:00:45;8.45;;;2.95;;
40717;SDS011;26405;51.850;-2.246;2023-10-31T08:03:10;9.30;;;3.05;;
40717;SDS011;26405;51.850;-2.246;2023-10-31T08:05:35;9.63;;;3.20;;
40717;SDS011;26405;51.850;-2.246;2023-10-31T08:08:00;10.93;;;2.58;;
40717;SDS011;26405;51.850;-2.246;2023-10-31T08:10:26;7.63;;;2.65;;
40717;SDS011;26405;51.850;-2.246;2023-10-31T08:12:52;10.50;;;3.03;;
40717;SDS011;26405;51.850;-2.246;2023-10-31T08:15:17;9.27;;;2.88;;
40717;SDS011;26405;51.850;-2.246;2023-10-31T08:17:43;9.55;;;2.88;;
40717;SDS011;26405;51.850;-2.246;2023-10-31T08:20:08;8.10;;;2.50;;
40717;SDS011;26405;51.850;-2.246;2023-10-31T08:22:34;9.07;;;2.60;;
40717;SDS011;26405;51.850;-2.246;2023-10-31T08:24:59;11.25;;;2.85;;
40717;SDS011;26405;51.850;-2.246;2023-10-31T08:27:24;14.60;;;3.38;;
40717;SDS011;26405;51.850;-2.246;2023-10-31T08:29:50;10.55;;;2.95;;
40717;SDS011;26405;51.850;-2.246;2023-10-31T08:32:15;9.48;;;3.00;;
40717;SDS011;26405;51.850;-2.246;2023-10-31T08:34:41;8.18;;;2.75;;
40717;SDS011;26405;51.850;-2.246;2023-10-31T08:37:06;5.72;;;2.45;;
40717;SDS011;26405;51.850;-2.246;2023-10-31T08:39:31;8.95;;;2.88;;
40717;SDS011;26405;51.850;-2.246;2023-10-31T08:41:57;10.77;;;2.78;;
40717;SDS011;26405;51.850;-2.246;2023-10-31T08:44:22;8.77;;;2.53;;
40717;SDS011;26405;51.850;-2.246;2023-10-31T08:46:48;7.50;;;2.58;;
40717;SDS011;26405;51.850;-2.246;2023-10-31T08:49:14;9.15;;;2.60;;
40717;SDS011;26405;51.850;-2.246;2023-10-31T08:54:05;9.23;;;2.47;;
40717;SDS011;26405;51.850;-2.246;2023-10-31T08:56:31;6.90;;;2.10;;
40717;SDS011;26405;51.850;-2.246;2023-10-31T08:58:56;7.13;;;2.20;;
40717;SDS011;26405;51.850;-2.246;2023-10-31T09:01:21;9.90;;;2.60;;
40717;SDS011;26405;51.850;-2.246;2023-10-31T09:03:47;6.03;;;2.10;;
40717;SDS011;26405;51.850;-2.246;2023-10-31T09:06:12;7.47;;;2.53;;
40717;SDS011;26405;51.850;-2.246;2023-10-31T09:08:38;7.05;;;2.40;;
40717;SDS011;26405;51.850;-2.246;2023-10-31T09:11:04;7.10;;;2.40;;
40717;SDS011;26405;51.850;-2.246;2023-10-31T09:13:29;7.72;;;2.50;;
40717;SDS011;26405;51.850;-2.246;2023-10-31T09:15:54;5.97;;;2.30;;
40717;SDS011;26405;51.850;-2.246;2023-10-31T09:18:20;9.35;;;2.40;;
40717;SDS011;26405;51.850;-2.246;2023-10-31T09:20:45;7.15;;;2.33;;
40717;SDS011;26405;51.850;-2.246;2023-10-31T09:23:11;5.40;;;2.00;;
40717;SDS011;26405;51.850;-2.246;2023-10-31T09:25:36;9.73;;;2.30;;
40717;SDS011;26405;51.850;-2.246;2023-10-31T09:28:01;7.78;;;2.13;;
40717;SDS011;26405;51.850;-2.246;2023-10-31T09:30:27;6.05;;;2.08;;
40717;SDS011;26405;51.850;-2.246;2023-10-31T09:32:52;7.10;;;2.17;;
40717;SDS011;26405;51.850;-2.246;2023-10-31T09:35:17;6.22;;;2.20;;
40717;SDS011;26405;51.850;-2.246;2023-10-31T09:37:43;12.13;;;2.63;;
40717;SDS011;26405;51.850;-2.246;2023-10-31T09:40:08;12.88;;;2.72;;
40717;SDS011;26405;51.850;-2.246;2023-10-31T09:42:35;10.95;;;2.60;;
40717;SDS011;26405;51.850;-2.246;2023-10-31T09:45:00;9.30;;;2.53;;
40717;SDS011;26405;51.850;-2.246;2023-10-31T09:47:25;11.48;;;3.58;;
40717;SDS011;26405;51.850;-2.246;2023-10-31T09:49:51;15.45;;;3.10;;
40717;SDS011;26405;51.850;-2.246;2023-10-31T09:52:16;7.20;;;2.50;;
40717;SDS011;26405;51.850;-2.246;2023-10-31T09:54:42;6.20;;;2.28;;
40717;SDS011;26405;51.850;-2.246;2023-10-31T09:57:07;10.07;;;2.70;;
40717;SDS011;26405;51.850;-2.246;2023-10-31T09:59:33;9.27;;;2.47;;
40717;SDS011;26405;51.850;-2.246;2023-10-31T10:01:58;11.43;;;2.50;;
40717;SDS011;26405;51.850;-2.246;2023-10-31T10:04:23;10.50;;;2.47;;
40717;SDS011;26405;51.850;-2.246;2023-10-31T10:06:58;6.10;;;2.10;;
40717;SDS011;26405;51.850;-2.246;2023-10-31T10:09:24;5.82;;;1.80;;
40717;SDS011;26405;51.850;-2.246;2023-10-31T10:11:50;7.30;;;2.20;;
40717;SDS011;26405;51.850;-2.246;2023-10-31T10:14:16;6.55;;;2.15;;
40717;SDS011;26405;51.850;-2.246;2023-10-31T10:16:41;7.80;;;2.28;;
40717;SDS011;26405;51.850;-2.246;2023-10-31T10:19:19;7.30;;;2.20;;
40717;SDS011;26405;51.850;-2.246;2023-10-31T10:21:52;5.95;;;2.30;;
40717;SDS011;26405;51.850;-2.246;2023-10-31T10:24:18;9.82;;;2.47;;
40717;SDS011;26405;51.850;-2.246;2023-10-31T10:26:44;6.93;;;2.40;;
40717;SDS011;26405;51.850;-2.246;2023-10-31T10:29:09;10.07;;;2.40;;
40717;SDS011;26405;51.850;-2.246;2023-10-31T10:31:34;7.20;;;2.10;;
40717;SDS011;26405;51.850;-2.246;2023-10-31T10:34:00;5.60;;;2.10;;
40717;SDS011;26405;51.850;-2.246;2023-10-31T10:36:26;9.43;;;2.22;;
40717;SDS011;26405;51.850;-2.246;2023-10-31T10:38:53;6.13;;;2.15;;
40717;SDS011;26405;51.850;-2.246;2023-10-31T10:41:21;9.82;;;2.35;;
40717;SDS011;26405;51.850;-2.246;2023-10-31T10:43:46;9.02;;;2.20;;
40717;SDS011;26405;51.850;-2.246;2023-10-31T10:46:12;8.93;;;2.30;;
40717;SDS011;26405;51.850;-2.246;2023-10-31T10:48:39;8.25;;;2.13;;
40717;SDS011;26405;51.850;-2.246;2023-10-31T10:51:21;9.57;;;2.40;;
40717;SDS011;26405;51.850;-2.246;2023-10-31T10:53:55;6.18;;;2.10;;
40717;SDS011;26405;51.850;-2.246;2023-10-31T10:56:26;6.93;;;2.22;;
40717;SDS011;26405;51.850;-2.246;2023-10-31T10:59:00;6.82;;;2.30;;
40717;SDS011;26405;51.850;-2.246;2023-10-31T11:01:26;7.95;;;2.58;;
40717;SDS011;26405;51.850;-2.246;2023-10-31T11:03:53;7.35;;;2.20;;
40717;SDS011;26405;51.850;-2.246;2023-10-31T11:06:20;8.10;;;2.28;;
40717;SDS011;26405;51.850;-2.246;2023-10-31T11:08:45;7.43;;;2.08;;
40717;SDS011;26405;51.850;-2.246;2023-10-31T11:11:11;10.02;;;2.10;;
40717;SDS011;26405;51.850;-2.246;2023-10-31T11:13:36;7.53;;;2.10;;
40717;SDS011;26405;51.850;-2.246;2023-10-31T11:16:05;7.73;;;2.20;;
40717;SDS011;26405;51.850;-2.246;2023-10-31T11:18:31;5.85;;;2.10;;
40717;SDS011;26405;51.850;-2.246;2023-10-31T11:20:57;5.88;;;2.10;;
40717;SDS011;26405;51.850;-2.246;2023-10-31T11:23:22;6.60;;;2.10;;
40717;SDS011;26405;51.850;-2.246;2023-10-31T11:25:49;10.57;;;2.60;;
40717;SDS011;26405;51.850;-2.246;2023-10-31T11:28:16;7.40;;;2.28;;
40717;SDS011;26405;51.850;-2.246;2023-10-31T11:30:41;9.93;;;2.60;;
40717;SDS011;26405;51.850;-2.246;2023-10-31T11:33:11;7.40;;;2.22;;
40717;SDS011;26405;51.850;-2.246;2023-10-31T11:35:38;6.50;;;2.13;;
40717;SDS011;26405;51.850;-2.246;2023-10-31T11:38:04;6.22;;;2.45;;
40717;SDS011;26405;51.850;-2.246;2023-10-31T11:40:31;5.65;;;2.10;;
40717;SDS011;26405;51.850;-2.246;2023-10-31T11:42:57;8.10;;;2.42;;
40717;SDS011;26405;51.850;-2.246;2023-10-31T11:45:24;7.72;;;2.58;;
40717;SDS011;26405;51.850;-2.246;2023-10-31T11:47:52;8.77;;;2.55;;
40717;SDS011;26405;51.850;-2.246;2023-10-31T11:50:18;10.25;;;2.40;;
40717;SDS011;26405;51.850;-2.246;2023-10-31T11:52:43;7.80;;;2.33;;
40717;SDS011;26405;51.850;-2.246;2023-10-31T11:55:09;5.43;;;2.20;;
40717;SDS011;26405;51.850;-2.246;2023-10-31T11:57:35;8.45;;;2.13;;
40717;SDS011;26405;51.850;-2.246;2023-10-31T12:00:01;5.85;;;2.05;;
40717;SDS011;26405;51.850;-2.246;2023-10-31T12:02:28;7.90;;;2.38;;
40717;SDS011;26405;51.850;-2.246;2023-10-31T12:05:07;6.90;;;2.10;;
40717;SDS011;26405;51.850;-2.246;2023-10-31T12:07:42;8.45;;;2.50;;
40717;SDS011;26405;51.850;-2.246;2023-10-31T12:10:07;7.20;;;2.50;;
40717;SDS011;26405;51.850;-2.246;2023-10-31T12:12:33;5.28;;;2.10;;
40717;SDS011;26405;51.850;-2.246;2023-10-31T12:15:05;6.22;;;2.47;;
40717;SDS011;26405;51.850;-2.246;2023-10-31T12:17:31;8.65;;;2.25;;
40717;SDS011;26405;51.850;-2.246;2023-10-31T12:19:57;8.80;;;2.38;;
40717;SDS011;26405;51.850;-2.246;2023-10-31T12:22:23;10.40;;;2.33;;
40717;SDS011;26405;51.850;-2.246;2023-10-31T12:24:48;7.90;;;2.50;;
40717;SDS011;26405;51.850;-2.246;2023-10-31T12:27:13;7.80;;;2.60;;
40717;SDS011;26405;51.850;-2.246;2023-10-31T12:29:39;4.80;;;2.10;;
40717;SDS011;26405;51.850;-2.246;2023-10-31T12:32:04;4.68;;;2.28;;
40717;SDS011;26405;51.850;-2.246;2023-10-31T12:34:30;7.05;;;2.25;;
40717;SDS011;26405;51.850;-2.246;2023-10-31T12:36:55;5.63;;;2.20;;
40717;SDS011;26405;51.850;-2.246;2023-10-31T12:39:25;5.93;;;2.20;;
40717;SDS011;26405;51.850;-2.246;2023-10-31T12:41:51;6.30;;;2.30;;
40717;SDS011;26405;51.850;-2.246;2023-10-31T12:44:17;5.78;;;2.17;;
40717;SDS011;26405;51.850;-2.246;2023-10-31T12:46:45;4.25;;;1.50;;
40717;SDS011;26405;51.850;-2.246;2023-10-31T12:49:12;4.38;;;1.88;;
40717;SDS011;26405;51.850;-2.246;2023-10-31T12:54:04;3.70;;;2.03;;
40717;SDS011;26405;51.850;-2.246;2023-10-31T12:56:37;4.53;;;1.80;;
40717;SDS011;26405;51.850;-2.246;2023-10-31T12:59:08;4.85;;;1.88;;
40717;SDS011;26405;51.850;-2.246;2023-10-31T13:01:34;3.88;;;1.90;;
40717;SDS011;26405;51.850;-2.246;2023-10-31T13:04:01;5.03;;;2.00;;
40717;SDS011;26405;51.850;-2.246;2023-10-31T13:06:26;5.20;;;1.90;;
40717;SDS011;26405;51.850;-2.246;2023-10-31T13:08:54;3.50;;;1.80;;
40717;SDS011;26405;51.850;-2.246;2023-10-31T13:11:20;3.72;;;1.60;;
40717;SDS011;26405;51.850;-2.246;2023-10-31T13:13:50;4.03;;;1.75;;
40717;SDS011;26405;51.850;-2.246;2023-10-31T13:16:15;5.63;;;2.10;;
40717;SDS011;26405;51.850;-2.246;2023-10-31T13:18:42;3.77;;;1.77;;
40717;SDS011;26405;51.850;-2.246;2023-10-31T13:21:07;5.22;;;1.95;;
40717;SDS011;26405;51.850;-2.246;2023-10-31T13:23:32;7.95;;;3.00;;
40717;SDS011;26405;51.850;-2.246;2023-10-31T13:25:58;3.53;;;2.10;;
40717;SDS011;26405;51.850;-2.246;2023-10-31T13:31:07;5.18;;;2.13;;
40717;SDS011;26405;51.850;-2.246;2023-10-31T13:33:33;2.08;;;1.83;;
40717;SDS011;26405;51.850;-2.246;2023-10-31T13:35:59;1.55;;;1.45;;
40717;SDS011;26405;51.850;-2.246;2023-10-31T13:38:24;2.33;;;1.50;;
40717;SDS011;26405;51.850;-2.246;2023-10-31T13:40:49;1.90;;;1.40;;
40717;SDS011;26405;51.850;-2.246;2023-10-31T13:43:15;3.65;;;1.52;;
40717;SDS011;26405;51.850;-2.246;2023-10-31T13:45:40;3.60;;;1.50;;
40717;SDS011;26405;51.850;-2.246;2023-10-31T13:48:05;2.92;;;1.83;;
40717;SDS011;26405;51.850;-2.246;2023-10-31T13:50:31;2.87;;;2.00;;
40717;SDS011;26405;51.850;-2.246;2023-10-31T13:52:57;2.10;;;1.40;;
40717;SDS011;26405;51.850;-2.246;2023-10-31T13:55:22;3.47;;;1.50;;
40717;SDS011;26405;51.850;-2.246;2023-10-31T13:57:49;3.13;;;1.30;;
40717;SDS011;26405;51.850;-2.246;2023-10-31T14:00:14;3.27;;;1.60;;
40717;SDS011;26405;51.850;-2.246;2023-10-31T14:02:39;2.63;;;1.50;;
40717;SDS011;26405;51.850;-2.246;2023-10-31T14:05:05;5.35;;;1.90;;
40717;SDS011;26405;51.850;-2.246;2023-10-31T14:07:30;4.25;;;1.77;;
40717;SDS011;26405;51.850;-2.246;2023-10-31T14:09:55;6.35;;;2.00;;
40717;SDS011;26405;51.850;-2.246;2023-10-31T14:12:22;2.87;;;1.50;;
40717;SDS011;26405;51.850;-2.246;2023-10-31T14:14:47;3.73;;;1.90;;
40717;SDS011;26405;51.850;-2.246;2023-10-31T14:17:14;6.60;;;2.08;;
40717;SDS011;26405;51.850;-2.246;2023-10-31T14:19:39;4.97;;;2.05;;
40717;SDS011;26405;51.850;-2.246;2023-10-31T14:22:05;4.88;;;2.00;;
40717;SDS011;26405;51.850;-2.246;2023-10-31T14:24:30;6.37;;;2.40;;
40717;SDS011;26405;51.850;-2.246;2023-10-31T14:26:56;5.35;;;1.95;;
40717;SDS011;26405;51.850;-2.246;2023-10-31T14:29:24;6.22;;;2.25;;
40717;SDS011;26405;51.850;-2.246;2023-10-31T14:31:49;6.82;;;2.90;;